KAFO/AFO METAR and TAF weather

Enter ICAO airport designator
Station Type Date Time Source
KAFO METAR 2021/03/05 00:15 UTC NOAA

KAFO 050015Z AUTO 00000KT 10SM CLR M03/M07 A3024 RMK AO2


Station Type Date Time Source
KAFO Decoded METAR 2021/03/05 00:15 UTC NOAA

Station name not available
Mar 04, 2021 - 07:15 PM EST / 2021.03.05 0015 UTC
Wind: Calm:0
Visibility: 10 mile(s):0
Sky conditions: clear
Temperature: 26 F (-3 C)
Dew Point: 19 F (-7 C)
Relative Humidity: 73%
Pressure (altimeter): 30.24 in. Hg (1024 hPa)
ob: KAFO 050015Z AUTO 00000KT 10SM CLR M03/M07 A3024 RMK AO2
cycle: 0

Station Type Date Time Source
KAFO TAF UTC NOAA

Error!

Example: see airport list